Time;durP1;ratioP1;P1;durP2;ratioP2;P2;SDS_P1;SDS_P2;PMS_P1;PMS_P2;Temp;Humidity;BMP_temperature;BMP_pressure;BME280_temperature;BME280_humidity;BME280_pressure;Samples;Min_cycle;Max_cycle;Signal;HPM_P1;HPM_P2
2022/11/16 06:18:11;;;;;;;22.55;16.65;;;;;;;5.04;100.00;98900.58;1858751;74;27697;-60
2022/11/16 06:20:39;;;;;;;23.83;15.45;;;;;;;5.65;100.00;98902.05;1845426;76;20982;-61
2022/11/16 06:23:06;;;;;;;21.40;14.78;;;;;;;5.88;100.00;98887.34;1858801;75;21796;-60
2022/11/16 06:25:37;;;;;;;20.40;15.95;;;;;;;6.03;100.00;98885.55;1840042;76;21080;-60
2022/11/16 06:28:03;;;;;;;23.83;15.30;;;;;;;6.18;100.00;98877.61;1758705;78;21128;-61
2022/11/16 06:30:31;;;;;;;22.10;16.25;;;;;;;6.32;100.00;98870.09;1786553;77;21427;-62
2022/11/16 06:32:58;;;;;;;19.27;14.87;;;;;;;6.46;100.00;98876.55;1836242;76;21478;-60
2022/11/16 06:35:25;;;;;;;23.38;15.58;;;;;;;6.55;100.00;98870.98;1768166;77;21371;-61
2022/11/16 06:50:05;;;;;;;19.98;14.45;;;;;;;5.50;100.00;98881.28;1805160;79;23153;-61
2022/11/16 06:52:34;;;;;;;21.23;15.15;;;;;;;6.17;100.00;98895.01;1778383;80;21429;-65
2022/11/16 06:55:01;;;;;;;20.27;14.17;;;;;;;6.37;100.00;98873.39;1772464;80;22014;-63
2022/11/16 06:57:29;;;;;;;21.20;15.38;;;;;;;6.54;100.00;98867.98;1776924;80;21489;-65
2022/11/16 06:59:56;;;;;;;20.35;15.15;;;;;;;6.66;100.00;98858.81;1778043;80;21474;-61
2022/11/16 07:02:23;;;;;;;21.77;16.00;;;;;;;6.76;100.00;98851.86;1777756;80;21466;-62
2022/11/16 07:04:50;;;;;;;21.07;15.93;;;;;;;6.87;100.00;98847.95;1774047;80;21442;-60
2022/11/16 07:07:18;;;;;;;20.77;15.43;;;;;;;6.98;100.00;98843.98;1773516;80;21863;-61
2022/11/16 07:29:04;;;;;;;16.50;13.60;;;;;;;7.30;100.00;98828.73;1772006;80;28659;-61
2022/11/16 07:31:33;;;;;;;17.77;14.60;;;;;;;7.34;100.00;98830.30;1773896;80;21029;-62
2022/11/16 07:34:18;;;;;;;19.70;14.85;;;;;;;7.42;100.00;98822.12;1756601;80;21508;-59
2022/11/16 07:36:50;;;;;;;19.35;14.65;;;;;;;7.48;100.00;98818.39;1771334;80;21671;-62
2022/11/16 07:39:17;;;;;;;20.40;15.43;;;;;;;7.52;100.00;98818.67;1772476;80;21755;-64
2022/11/16 07:41:45;;;;;;;22.13;15.15;;;;;;;7.58;100.00;98821.02;1773469;80;21118;-60
2022/11/16 07:44:14;;;;;;;19.65;15.50;;;;;;;7.63;100.00;98816.44;1764283;79;21449;-62
2022/11/16 07:46:41;;;;;;;20.40;16.05;;;;;;;7.71;100.00;98814.79;1775955;80;21489;-60
2022/11/16 07:49:15;;;;;;;18.40;15.20;;;;;;;7.75;100.00;98812.42;1753022;80;21465;-60
2022/11/16 07:51:44;;;;;;;22.15;16.50;;;;;;;7.78;100.00;98813.14;1746055;80;21826;-61
2022/11/16 07:54:13;;;;;;;18.45;14.35;;;;;;;7.83;100.00;98808.16;1755737;80;20978;-61
2022/11/16 07:56:42;;;;;;;18.60;15.28;;;;;;;7.87;100.00;98809.23;1748582;80;21418;-61
2022/11/16 07:59:10;;;;;;;21.05;15.98;;;;;;;7.94;100.00;98802.81;1732068;80;21581;-60
2022/11/16 08:01:40;;;;;;;21.60;15.63;;;;;;;8.02;100.00;98803.77;1673637;85;21483;-61
2022/11/16 08:04:07;;;;;;;19.30;15.58;;;;;;;8.07;100.00;98797.88;1753451;80;22008;-60
2022/11/16 08:06:33;;;;;;;17.92;14.87;;;;;;;8.11;100.00;98799.42;1753553;80;21541;-59
2022/11/16 08:09:00;;;;;;;18.15;14.85;;;;;;;8.17;100.00;98800.91;1766501;80;21433;-59
2022/11/16 08:11:28;;;;;;;16.10;13.55;;;;;;;8.25;100.00;98802.73;1749965;81;21580;-60
2022/11/16 08:13:56;;;;;;;15.53;13.18;;;;;;;8.33;100.00;98803.21;1756899;80;21531;-58
2022/11/16 08:16:23;;;;;;;15.45;12.90;;;;;;;8.42;100.00;98800.66;1743297;80;22469;-60
2022/11/16 08:18:53;;;;;;;14.10;12.40;;;;;;;8.46;100.00;98800.91;1741317;80;21530;-61
2022/11/16 08:21:21;;;;;;;14.13;12.15;;;;;;;8.51;100.00;98796.73;1744506;80;27187;-60
2022/11/16 08:23:48;;;;;;;;;;;;;;;8.52;100.00;98787.97;1745834;80;21003;-59
2022/11/16 08:26:17;;;;;;;12.37;11.08;;;;;;;8.49;100.00;98789.41;1747871;80;20505;-60
2022/11/16 08:28:54;;;;;;;13.88;12.05;;;;;;;8.53;100.00;98789.21;1744926;80;21882;-60
2022/11/16 08:31:26;;;;;;;12.37;10.95;;;;;;;8.55;100.00;98793.04;1745190;80;21522;-61
2022/11/16 08:33:55;;;;;;;13.55;10.95;;;;;;;8.56;100.00;98791.66;1734426;80;21545;-60
2022/11/16 08:36:22;;;;;;;12.73;11.40;;;;;;;8.57;100.00;98795.16;1746356;80;21443;-60
2022/11/16 08:38:50;;;;;;;11.22;10.13;;;;;;;8.60;100.00;98793.67;1742326;80;21041;-59
2022/11/16 08:41:19;;;;;;;12.23;10.48;;;;;;;8.64;100.00;98795.69;1749839;79;21502;-59
2022/11/16 08:43:46;;;;;;;11.97;10.40;;;;;;;8.67;100.00;98799.02;1749090;80;21277;-61
2022/11/16 08:46:13;;;;;;;12.00;9.88;;;;;;;8.68;100.00;98798.11;1751131;80;21494;-59
2022/11/16 08:48:41;;;;;;;12.37;10.48;;;;;;;8.69;100.00;98791.08;1750632;80;21786;-62
2022/11/16 08:51:13;;;;;;;10.15;9.15;;;;;;;8.67;100.00;98800.33;1753211;80;21238;-60
2022/11/16 08:53:41;;;;;;;10.78;9.78;;;;;;;8.68;100.00;98797.23;1730686;82;21797;-59
2022/11/16 08:56:14;;;;;;;10.70;9.55;;;;;;;8.68;100.00;98802.48;1701444;83;21663;-59
2022/11/16 08:58:42;;;;;;;16.15;10.43;;;;;;;8.71;100.00;98797.09;1720427;81;21164;-60
2022/11/16 09:01:16;;;;;;;10.98;9.98;;;;;;;8.75;100.00;98803.88;1698341;83;21485;-60
2022/11/16 09:03:44;;;;;;;13.13;10.93;;;;;;;8.77;100.00;98799.41;1714509;82;21449;-60
2022/11/16 09:06:13;;;;;;;12.40;10.90;;;;;;;8.76;100.00;98797.27;1708327;82;21533;-60
2022/11/16 09:08:41;;;;;;;;;;;;;;;8.75;100.00;98794.70;1713809;82;21108;-59
2022/11/16 09:11:12;;;;;;;14.95;10.90;;;;;;;8.66;100.00;98791.22;1707812;82;20460;-60
2022/11/16 09:13:39;;;;;;;12.47;11.08;;;;;;;8.63;100.00;98790.08;1712745;82;21486;-60
2022/11/16 09:16:06;;;;;;;14.28;12.07;;;;;;;8.64;100.00;98786.52;1705353;82;21679;-60
2022/11/16 09:18:33;;;;;;;13.55;11.83;;;;;;;8.65;100.00;98789.07;1716466;82;21541;-59
2022/11/16 09:21:00;;;;;;;14.00;12.20;;;;;;;8.67;100.00;98791.63;1705473;82;21442;-59
2022/11/16 09:23:27;;;;;;;19.17;13.45;;;;;;;8.68;100.00;98785.44;1713677;82;21521;-60
2022/11/16 09:25:54;;;;;;;15.93;12.97;;;;;;;8.61;100.00;98784.03;1716115;82;21059;-59
2022/11/16 09:28:22;;;;;;;14.78;12.37;;;;;;;8.51;100.00;98788.87;1702606;82;21486;-59
2022/11/16 09:30:50;;;;;;;14.35;11.83;;;;;;;8.49;100.00;98782.39;1705618;82;22119;-60
2022/11/16 09:33:17;;;;;;;15.00;13.25;;;;;;;8.48;100.00;98780.72;1710062;82;21615;-59
2022/11/16 14:58:22;;;;;;;3.80;3.42;;;;;;;4.40;100.00;98740.73;1838116;74;27294;-70
2022/11/16 15:04:52;;;;;;;3.52;3.22;;;;;;;4.96;100.00;98737.16;1821122;76;21387;-71
2022/11/16 15:07:23;;;;;;;3.42;3.12;;;;;;;5.09;100.00;98727.63;1796184;77;21634;-69
2022/11/16 15:09:53;;;;;;;3.15;2.87;;;;;;;5.19;100.00;98728.99;1804452;76;21396;-71
2022/11/16 15:12:40;;;;;;;3.00;2.40;;;;;;;5.28;100.00;98731.73;1790134;76;21480;-70
2022/11/16 15:15:15;;;;;;;2.27;2.08;;;;;;;5.34;100.00;98730.20;1819984;76;21104;-68
2022/11/16 15:17:47;;;;;;;2.40;2.20;;;;;;;5.43;100.00;98729.41;1794934;77;21602;-68
2022/11/16 15:20:22;;;;;;;3.20;2.50;;;;;;;5.52;100.00;98730.84;1829035;76;20994;-69
2022/11/16 15:22:55;;;;;;;2.92;2.70;;;;;;;5.61;100.00;98733.12;1822558;76;21627;-69
2022/11/16 15:25:36;;;;;;;2.85;2.65;;;;;;;5.69;100.00;98728.05;1808507;76;23033;-69
2022/11/16 15:28:07;;;;;;;2.70;2.50;;;;;;;5.76;100.00;98726.91;1814879;77;21443;-71
2022/11/16 15:30:36;;;;;;;2.60;2.40;;;;;;;5.81;100.00;98734.96;1800876;76;21758;-71
2022/11/16 15:33:10;;;;;;;3.27;2.20;;;;;;;5.84;100.00;98732.25;1814341;77;21542;-71
2022/11/16 15:35:37;;;;;;;2.02;1.92;;;;;;;5.90;100.00;98729.02;1806773;76;21079;-71
2022/11/16 15:38:31;;;;;;;2.60;2.22;;;;;;;5.94;100.00;98730.59;1780878;77;21418;-71
2022/11/16 15:41:02;;;;;;;2.12;1.98;;;;;;;5.97;100.00;98732.66;1800988;77;21612;-69
2022/11/16 15:43:40;;;;;;;1.90;1.80;;;;;;;6.00;100.00;98738.21;1824379;76;21454;-68
2022/11/16 15:46:07;;;;;;;2.45;1.85;;;;;;;6.01;100.00;98729.48;1795508;77;21666;-69
2022/11/16 15:48:38;;;;;;;2.27;1.67;;;;;;;6.00;100.00;98732.52;1797701;76;21482;-69
2022/11/16 15:51:15;;;;;;;3.25;2.17;;;;;;;6.00;100.00;98727.77;1811522;76;21034;-72
2022/11/16 15:53:45;;;;;;;2.00;1.87;;;;;;;6.03;100.00;98733.72;1820668;76;21482;-69
2022/11/16 15:56:22;;;;;;;1.95;1.82;;;;;;;6.05;100.00;98741.50;1807675;76;22049;-69
2022/11/16 15:58:49;;;;;;;2.40;2.20;;;;;;;6.07;100.00;98734.45;1789886;77;21224;-69
2022/11/16 16:01:17;;;;;;;2.15;2.05;;;;;;;6.07;100.00;98732.31;1820063;76;21545;-67
2022/11/16 16:04:05;;;;;;;3.33;2.08;;;;;;;6.07;100.00;98729.23;1810732;76;20970;-68
2022/11/16 16:06:50;;;;;;;2.25;2.05;;;;;;;6.06;100.00;98733.20;1776778;78;21607;-69
2022/11/16 16:09:30;;;;;;;2.37;2.12;;;;;;;6.04;100.00;98722.36;1726514;80;21815;-68
2022/11/16 16:12:21;;;;;;;2.25;2.05;;;;;;;6.06;100.00;98711.87;1817609;76;21903;-71
2022/11/16 16:14:49;;;;;;;2.85;1.80;;;;;;;6.01;100.00;98715.98;1790975;77;22117;-70
2022/11/16 16:17:28;;;;;;;1.85;1.70;;;;;;;6.00;100.00;98717.33;1775899;77;21413;-70
2022/11/16 16:20:00;;;;;;;1.60;1.50;;;;;;;6.00;100.00;98719.94;1815808;77;21470;-67
2022/11/16 16:22:35;;;;;;;1.65;1.55;;;;;;;6.00;100.00;98717.33;1813086;77;21859;-69
2022/11/16 16:25:03;;;;;;;1.80;1.70;;;;;;;5.99;100.00;98720.84;1799123;76;21121;-69
2022/11/16 16:27:31;;;;;;;1.82;1.62;;;;;;;5.96;100.00;98714.45;1823262;76;21003;-69
2022/11/16 16:30:03;;;;;;;1.72;1.37;;;;;;;5.96;100.00;98722.28;1816301;76;21574;-68
2022/11/16 16:32:32;;;;;;;1.87;1.77;;;;;;;5.97;100.00;98723.53;1779807;77;21420;-68
2022/11/16 16:35:02;;;;;;;2.25;1.77;;;;;;;6.00;100.00;98726.47;1821057;76;21866;-68
2022/11/16 16:37:30;;;;;;;1.95;1.85;;;;;;;5.96;100.00;98717.91;1795688;77;21449;-70
2022/11/16 16:39:57;;;;;;;2.25;2.05;;;;;;;5.95;100.00;98718.83;1829651;76;21610;-70
2022/11/16 16:42:24;;;;;;;2.35;2.17;;;;;;;5.99;100.00;98717.80;1817599;76;21117;-67
2022/11/16 16:44:52;;;;;;;3.00;2.20;;;;;;;5.97;100.00;98707.88;1806952;76;21601;-69
2022/11/16 16:47:19;;;;;;;2.90;2.63;;;;;;;5.98;100.00;98706.95;1817056;76;21919;-68
2022/11/16 16:49:49;;;;;;;2.50;2.30;;;;;;;5.97;100.00;98704.39;1792143;76;27128;-68
2022/11/16 16:52:16;;;;;;;3.17;2.98;;;;;;;5.92;100.00;98707.63;1809253;76;21515;-70
2022/11/16 16:54:42;;;;;;;3.33;3.02;;;;;;;5.88;100.00;98702.98;1819489;76;21625;-69
2022/11/16 16:57:16;;;;;;;3.27;2.98;;;;;;;5.87;100.00;98702.57;1819274;76;21526;-69
2022/11/16 16:59:47;;;;;;;3.77;3.37;;;;;;;5.82;100.00;98717.54;1797082;76;21771;-70
2022/11/16 17:02:14;;;;;;;3.15;2.85;;;;;;;5.67;100.00;98713.78;1815261;76;21639;-70
2022/11/16 17:04:42;;;;;;;3.02;2.80;;;;;;;5.73;100.00;98707.02;1793715;77;21484;-68
2022/11/16 17:15:00;;;;;;;3.15;2.95;;;;;;;5.73;100.00;98708.33;1816662;77;20994;-68
2022/11/16 17:17:26;;;;;;;3.20;2.90;;;;;;;5.64;100.00;98704.30;1805498;76;21554;-73
2022/11/16 17:19:53;;;;;;;6.10;3.33;;;;;;;5.63;100.00;98706.52;1826196;76;21589;-72
2022/11/16 17:22:20;;;;;;;3.80;3.10;;;;;;;5.63;100.00;98700.44;1806803;76;21596;-68
2022/11/16 17:24:46;;;;;;;3.20;3.00;;;;;;;5.60;100.00;98706.63;1822720;76;21499;-68
2022/11/16 17:27:14;;;;;;;4.50;3.42;;;;;;;5.59;100.00;98707.52;1812581;76;21813;-71
2022/11/16 17:29:40;;;;;;;2.80;2.60;;;;;;;5.63;100.00;98710.44;1809444;76;21530;-69
2022/11/16 17:32:07;;;;;;;2.87;2.58;;;;;;;5.61;100.00;98709.64;1781726;77;22139;-70
2022/11/16 17:34:34;;;;;;;2.62;2.27;;;;;;;5.59;100.00;98715.80;1800669;77;21503;-70
2022/11/16 17:37:01;;;;;;;1.92;1.72;;;;;;;5.55;100.00;98716.83;1806854;76;21563;-69
2022/11/16 17:39:27;;;;;;;2.42;2.22;;;;;;;5.52;100.00;98715.63;1818730;77;21744;-68
2022/11/16 17:41:54;;;;;;;1.90;1.80;;;;;;;5.48;100.00;98714.89;1821137;76;21506;-68
2022/11/16 17:44:20;;;;;;;1.92;1.60;;;;;;;5.43;100.00;98716.84;1822416;75;21510;-70
2022/11/16 17:46:48;;;;;;;1.62;1.52;;;;;;;5.39;100.00;98715.26;1791394;77;21031;-71
2022/11/16 17:49:15;;;;;;;1.92;1.82;;;;;;;5.39;100.00;98716.56;1790613;77;21547;-71
2022/11/16 17:51:42;;;;;;;2.00;1.90;;;;;;;5.33;100.00;98714.16;1826591;75;21906;-70
2022/11/16 17:54:08;;;;;;;1.70;1.60;;;;;;;5.32;100.00;98717.22;1817486;76;21569;-67
2022/11/16 17:56:35;;;;;;;1.70;1.60;;;;;;;5.32;100.00;98711.16;1773821;77;21540;-68
2022/11/16 17:59:02;;;;;;;2.17;1.92;;;;;;;5.26;100.00;98706.56;1779982;77;21465;-67
2022/11/16 18:01:30;;;;;;;1.95;1.85;;;;;;;5.22;100.00;98706.28;1798763;77;21003;-67
2022/11/16 18:03:56;;;;;;;2.95;1.98;;;;;;;5.18;100.00;98708.61;1825632;75;21785;-67
2022/11/16 18:06:24;;;;;;;2.15;1.90;;;;;;;5.12;100.00;98710.11;1834276;76;21455;-69
2022/11/16 18:08:52;;;;;;;1.47;1.37;;;;;;;5.06;100.00;98703.36;1818672;76;21484;-67
2022/11/16 18:11:20;;;;;;;;;;;;;;;4.71;100.00;98652.95;1780117;76;21570;-68
2022/11/16 18:13:55;;;;;;;1.80;1.70;;;;;;;4.99;100.00;98710.14;1827255;76;20218;-67
2022/11/16 18:16:24;;;;;;;1.90;1.80;;;;;;;4.94;100.00;98697.29;1793432;76;22226;-67
2022/11/16 18:19:00;;;;;;;1.75;1.65;;;;;;;4.92;100.00;98703.01;1793326;76;21048;-67
2022/11/16 18:21:26;;;;;;;1.57;1.47;;;;;;;4.94;100.00;98706.87;1808245;76;21537;-67
2022/11/16 18:23:53;;;;;;;2.00;1.70;;;;;;;4.96;100.00;98699.39;1818932;76;21535;-66
2022/11/16 22:08:24;;;;;;;5.15;4.65;;;;;;;2.04;100.00;98729.89;1803539;78;21605;-70
2022/11/16 22:10:51;;;;;;;4.45;4.05;;;;;;;2.27;100.00;98725.02;1805022;77;21781;-68
2022/11/16 22:13:18;;;;;;;4.60;4.20;;;;;;;2.42;100.00;98716.01;1807557;77;21477;-68
2022/11/16 22:15:45;;;;;;;4.83;4.33;;;;;;;2.66;100.00;98700.73;1794778;77;21550;-68
2022/11/16 22:18:12;;;;;;;5.22;4.25;;;;;;;2.66;100.00;98700.73;1809075;78;21453;-69
2022/11/16 22:20:39;;;;;;;4.15;3.85;;;;;;;2.75;100.00;98695.72;1797357;77;21442;-69
2022/11/16 22:23:05;;;;;;;6.70;4.15;;;;;;;2.84;100.00;98695.48;1769954;80;21964;-71
2022/11/16 22:25:33;;;;;;;4.60;4.20;;;;;;;2.95;100.00;98693.91;1757888;79;21515;-70
2022/11/16 22:27:59;;;;;;;4.50;3.67;;;;;;;3.04;100.00;98690.61;1793638;78;21032;-71
2022/11/16 22:30:25;;;;;;;4.55;4.15;;;;;;;3.17;100.00;98687.69;1780304;78;21120;-72
2022/11/16 22:32:52;;;;;;;3.87;3.53;;;;;;;3.26;100.00;98679.18;1797501;78;21570;-71
2022/11/16 22:35:19;;;;;;;3.90;3.60;;;;;;;3.34;100.00;98690.65;1803459;78;21739;-71
2022/11/16 22:37:46;;;;;;;3.80;3.50;;;;;;;3.39;100.00;98687.91;1750515;80;21541;-69
2022/11/16 22:40:13;;;;;;;4.03;3.40;;;;;;;3.44;100.00;98687.33;1760971;80;21438;-69
2022/11/16 22:42:40;;;;;;;3.58;3.00;;;;;;;3.45;100.00;98689.89;1770633;80;21438;-71
2022/11/16 22:45:07;;;;;;;4.10;3.67;;;;;;;3.49;100.00;98687.60;1783241;77;20999;-71
2022/11/16 22:47:34;;;;;;;3.40;3.10;;;;;;;3.52;100.00;98695.75;1749634;79;21879;-72
2022/11/16 22:50:02;;;;;;;4.03;3.72;;;;;;;3.55;100.00;98688.33;1803478;78;20987;-72
2022/11/16 22:52:28;;;;;;;;;;;;;;;3.57;100.00;98693.88;1804041;78;21052;-76
2022/11/16 22:54:55;;;;;;;7.03;3.40;;;;;;;3.58;100.00;98689.52;1800601;77;20406;-71
2022/11/16 22:57:22;;;;;;;5.83;4.03;;;;;;;3.59;100.00;98677.78;1804238;78;21528;-72
2022/11/16 22:59:48;;;;;;;4.20;3.65;;;;;;;3.65;100.00;98686.69;1787689;78;21813;-71
2022/11/16 23:02:15;;;;;;;3.95;3.50;;;;;;;3.70;100.00;98693.91;1808015;78;21444;-71
2022/11/16 23:04:43;;;;;;;5.28;3.35;;;;;;;3.70;100.00;98688.70;1763964;80;21001;-74
2022/11/16 23:07:09;;;;;;;3.83;3.05;;;;;;;3.70;100.00;98688.70;1786047;78;21561;-71
2022/11/16 23:09:37;;;;;;;3.65;2.95;;;;;;;3.70;100.00;98680.06;1807656;78;21630;-72
2022/11/16 23:17:35;;;;;;;2.90;2.70;;;;;;;3.78;100.00;98681.97;1789012;77;21497;-70
2022/11/16 23:28:17;;;;;;;2.17;1.98;;;;;;;3.67;100.00;98674.95;1803902;78;20954;-70
2022/11/16 23:30:44;;;;;;;3.45;2.37;;;;;;;3.64;100.00;98679.80;1809314;78;20935;-72
2022/11/16 23:33:10;;;;;;;4.67;2.70;;;;;;;3.62;100.00;98675.55;1769601;79;21529;-71
2022/11/16 23:35:38;;;;;;;5.20;2.50;;;;;;;3.59;100.00;98689.48;1751478;79;21553;-71
2022/11/16 23:38:05;;;;;;;2.52;2.33;;;;;;;3.53;100.00;98687.06;1744508;79;21956;-70
2022/11/16 23:40:35;;;;;;;2.92;2.40;;;;;;;3.54;100.00;98687.91;1752507;80;21477;-71
2022/11/16 23:45:47;;;;;;;2.02;1.92;;;;;;;3.51;100.00;98691.46;1731715;81;20959;-69
2022/11/16 23:48:14;;;;;;;3.60;1.90;;;;;;;3.50;100.00;98692.34;1749609;81;21525;-69
2022/11/16 23:50:41;;;;;;;;;;;;;;;3.50;100.00;98689.31;1753070;80;21535;-69
2022/11/16 23:53:08;;;;;;;2.42;2.22;;;;;;;3.37;100.00;98678.00;1742166;80;20435;-70
2022/11/16 23:55:41;;;;;;;1.98;1.87;;;;;;;3.36;100.00;98672.42;1745882;80;21487;-70
2022/11/16 23:58:06;;;;;;;1.87;1.77;;;;;;;3.31;100.00;98677.31;1751383;81;21493;-71
